createdAt,value
2022-10-06T00:01:15.385Z,2.80
2022-10-06T00:03:43.052Z,1.80
2022-10-06T00:06:11.598Z,2.20
2022-10-06T00:08:39.700Z,2.22
2022-10-06T00:11:07.484Z,1.90
2022-10-06T00:13:35.332Z,2.20
2022-10-06T00:16:04.193Z,2.40
2022-10-06T00:18:31.842Z,2.05
2022-10-06T00:21:01.833Z,1.95
2022-10-06T00:23:29.625Z,1.67
2022-10-06T00:25:57.047Z,2.20
2022-10-06T00:28:24.201Z,1.67
2022-10-06T00:30:53.413Z,2.10
2022-10-06T00:33:20.667Z,2.05
2022-10-06T00:35:48.994Z,2.53
2022-10-06T00:38:16.986Z,2.60
2022-10-06T00:40:45.918Z,1.88
2022-10-06T00:43:32.863Z,2.63
2022-10-06T00:45:59.989Z,2.70
2022-10-06T00:48:28.613Z,2.50
2022-10-06T00:50:57.510Z,2.33
2022-10-06T00:53:26.770Z,2.17
2022-10-06T00:55:54.405Z,2.03
2022-10-06T00:58:21.965Z,2.78
2022-10-06T01:00:50.283Z,2.17
2022-10-06T01:03:19.978Z,2.45
2022-10-06T01:05:49.072Z,2.25
2022-10-06T01:08:16.747Z,2.35
2022-10-06T01:10:44.208Z,2.55
2022-10-06T01:13:12.126Z,2.20
2022-10-06T01:15:42.091Z,2.85
2022-10-06T01:18:13.716Z,2.33
2022-10-06T01:20:44.979Z,2.50
2022-10-06T01:23:12.823Z,2.35
2022-10-06T01:25:40.020Z,2.15
2022-10-06T01:28:08.762Z,1.45
2022-10-06T01:30:38.989Z,2.58
2022-10-06T01:33:06.099Z,2.28
2022-10-06T01:35:34.104Z,2.28
2022-10-06T01:38:01.345Z,1.75
2022-10-06T01:40:30.201Z,2.13
2022-10-06T01:42:59.808Z,2.05
2022-10-06T01:45:28.116Z,1.98
2022-10-06T01:47:55.167Z,1.88
2022-10-06T01:50:22.992Z,2.80
2022-10-06T01:52:50.116Z,1.45
2022-10-06T01:55:17.370Z,2.53
2022-10-06T01:57:45.245Z,2.33
2022-10-06T02:00:13.211Z,2.00
2022-10-06T02:02:44.919Z,2.08
2022-10-06T02:05:12.405Z,2.15
2022-10-06T02:07:42.971Z,1.90
2022-10-06T02:10:13.255Z,2.05
2022-10-06T02:12:40.550Z,2.10
2022-10-06T02:15:11.060Z,1.58
2022-10-06T02:17:38.734Z,1.40
2022-10-06T02:20:06.674Z,2.03
2022-10-06T02:22:37.910Z,2.08
2022-10-06T02:25:05.200Z,1.90
2022-10-06T02:27:32.280Z,1.60
2022-10-06T02:29:59.513Z,2.28
2022-10-06T02:32:32.723Z,1.67
2022-10-06T02:35:00.165Z,1.95
2022-10-06T02:37:28.341Z,2.38
2022-10-06T02:39:55.633Z,2.45
2022-10-06T02:42:23.228Z,1.90
2022-10-06T02:44:52.106Z,1.85
2022-10-06T02:47:22.135Z,2.35
2022-10-06T02:49:49.261Z,2.15
2022-10-06T02:52:16.934Z,2.03
2022-10-06T02:54:44.152Z,2.30
2022-10-06T02:57:11.210Z,2.08
2022-10-06T02:59:38.562Z,1.67
2022-10-06T03:02:05.960Z,1.20
2022-10-06T03:04:33.118Z,2.22
2022-10-06T03:07:00.229Z,2.30
2022-10-06T03:09:31.952Z,2.63
2022-10-06T03:11:59.275Z,1.90
2022-10-06T03:14:39.345Z,1.63
2022-10-06T03:17:11.304Z,1.80
2022-10-06T03:19:45.095Z,2.22
2022-10-06T03:22:12.369Z,1.98
2022-10-06T03:24:47.976Z,1.95
2022-10-06T03:27:15.212Z,2.22
2022-10-06T03:29:42.663Z,2.45
2022-10-06T03:32:10.016Z,1.80
2022-10-06T03:34:38.130Z,1.55
2022-10-06T03:37:08.328Z,2.00
2022-10-06T03:39:35.703Z,2.15
2022-10-06T03:42:02.900Z,1.50
2022-10-06T03:44:32.207Z,1.92
2022-10-06T03:46:59.592Z,1.63
2022-10-06T03:49:26.846Z,2.15
2022-10-06T03:51:54.434Z,2.72
2022-10-06T03:54:26.027Z,2.55
2022-10-06T03:56:54.503Z,2.15
2022-10-06T03:59:21.655Z,2.00
2022-10-06T04:01:50.578Z,2.20
2022-10-06T04:04:26.150Z,2.47
2022-10-06T04:07:00.833Z,1.55
2022-10-06T04:09:28.109Z,1.77
2022-10-06T04:11:56.667Z,1.63
2022-10-06T04:14:23.964Z,1.83
2022-10-06T04:16:51.968Z,2.20
2022-10-06T04:19:29.689Z,2.38
2022-10-06T04:21:56.863Z,2.00
2022-10-06T04:24:25.701Z,2.35
2022-10-06T04:26:53.290Z,2.70
2022-10-06T04:29:21.734Z,1.85
2022-10-06T04:31:53.633Z,2.22
2022-10-06T04:34:33.795Z,1.60
2022-10-06T04:37:01.178Z,2.50
2022-10-06T04:39:28.527Z,2.83
2022-10-06T04:41:57.391Z,1.80
2022-10-06T04:44:31.604Z,1.65
2022-10-06T04:47:01.890Z,2.20
2022-10-06T04:49:38.169Z,2.30
2022-10-06T04:52:08.020Z,2.35
2022-10-06T04:54:37.612Z,2.17
2022-10-06T04:57:06.454Z,2.28
2022-10-06T04:59:52.703Z,2.30
2022-10-06T05:02:21.009Z,2.83
2022-10-06T05:04:52.730Z,3.10
2022-10-06T05:07:25.604Z,3.13
2022-10-06T05:09:54.669Z,2.90
2022-10-06T05:12:21.895Z,2.88
2022-10-06T05:14:49.086Z,2.75
2022-10-06T05:17:17.893Z,2.20
2022-10-06T05:19:45.993Z,2.45
2022-10-06T05:22:13.196Z,2.60
2022-10-06T05:24:40.754Z,2.08
2022-10-06T05:27:08.100Z,2.65
2022-10-06T05:29:36.097Z,2.40
2022-10-06T05:32:05.435Z,1.92
2022-10-06T05:34:33.956Z,2.88
2022-10-06T05:37:01.498Z,3.88
2022-10-06T05:39:28.955Z,4.18
2022-10-06T05:41:58.266Z,3.10
2022-10-06T05:44:26.633Z,3.28
2022-10-06T05:47:12.752Z,3.45
2022-10-06T05:53:46.821Z,2.97
2022-10-06T05:56:15.498Z,3.25
2022-10-06T05:58:44.535Z,2.00
2022-10-06T06:01:13.591Z,3.10
2022-10-06T06:03:49.408Z,2.10
2022-10-06T06:06:32.888Z,3.28
2022-10-06T06:09:10.395Z,3.45
2022-10-06T06:11:39.210Z,2.97
2022-10-06T06:14:07.493Z,2.92
2022-10-06T06:16:35.929Z,2.28
2022-10-06T06:19:03.406Z,3.10
2022-10-06T06:21:30.693Z,2.25
2022-10-06T06:23:58.380Z,2.10
2022-10-06T06:26:26.864Z,2.03
2022-10-06T06:28:56.035Z,2.90
2022-10-06T06:31:28.089Z,2.70
2022-10-06T06:33:56.551Z,2.95
2022-10-06T06:36:26.872Z,3.80
2022-10-06T06:38:55.587Z,3.15
2022-10-06T06:41:24.858Z,3.17
2022-10-06T06:43:57.963Z,2.90
2022-10-06T06:46:36.611Z,2.97
2022-10-06T06:49:07.528Z,4.20
2022-10-06T06:51:40.723Z,3.10
2022-10-06T06:54:08.534Z,2.22
2022-10-06T06:56:39.162Z,3.30
2022-10-06T06:59:13.102Z,2.55
2022-10-06T07:01:48.689Z,2.75
2022-10-06T07:04:19.784Z,3.17
2022-10-06T07:06:53.328Z,2.47
2022-10-06T07:09:21.198Z,2.38
2022-10-06T07:11:50.129Z,2.17
2022-10-06T07:14:22.627Z,3.17
2022-10-06T07:17:28.435Z,2.28
2022-10-06T07:20:14.311Z,2.80
2022-10-06T07:23:00.270Z,2.60
2022-10-06T07:25:27.656Z,2.30
2022-10-06T07:27:57.439Z,1.75
2022-10-06T07:30:40.442Z,1.92
2022-10-06T07:33:11.780Z,3.10
2022-10-06T07:35:39.719Z,2.25
2022-10-06T07:38:08.556Z,2.22
2022-10-06T07:40:46.267Z,2.38
2022-10-06T07:43:23.098Z,2.22
2022-10-06T07:45:53.267Z,2.75
2022-10-06T07:48:46.676Z,2.95
2022-10-06T07:51:18.547Z,2.53
2022-10-06T07:53:50.934Z,2.88
2022-10-06T07:56:32.484Z,2.05
2022-10-06T07:58:59.938Z,2.55
2022-10-06T08:01:29.257Z,2.40
2022-10-06T08:03:56.371Z,2.40
2022-10-06T08:06:24.384Z,2.30
2022-10-06T08:08:56.435Z,2.17
2022-10-06T08:11:23.833Z,1.63
2022-10-06T08:13:52.206Z,2.63
2022-10-06T08:16:21.739Z,2.60
2022-10-06T08:18:50.927Z,1.38
2022-10-06T08:21:23.836Z,1.77
2022-10-06T08:23:52.022Z,1.65
2022-10-06T08:26:20.866Z,2.25
2022-10-06T08:28:50.800Z,1.40
2022-10-06T08:31:21.442Z,2.70
2022-10-06T08:33:49.095Z,1.73
2022-10-06T08:36:18.510Z,1.90
2022-10-06T08:38:50.488Z,1.45
2022-10-06T08:41:28.888Z,1.90
2022-10-06T08:44:17.971Z,1.80
2022-10-06T08:47:03.727Z,2.00
2022-10-06T08:49:38.936Z,2.20
2022-10-06T08:52:05.983Z,1.65
2022-10-06T08:54:43.604Z,1.95
2022-10-06T08:57:22.311Z,1.95
2022-10-06T08:59:53.367Z,1.83
2022-10-06T09:02:32.454Z,1.83
2022-10-06T09:05:04.121Z,2.30
2022-10-06T09:07:46.144Z,2.00
2022-10-06T09:10:43.336Z,1.60
2022-10-06T09:13:19.687Z,1.73
2022-10-06T09:15:56.652Z,1.95
2022-10-06T09:18:48.989Z,1.90
2022-10-06T09:21:23.331Z,2.17
2022-10-06T09:23:56.912Z,1.88
2022-10-06T09:26:30.365Z,1.60
2022-10-06T09:28:58.146Z,1.77
2022-10-06T09:31:25.396Z,2.00
2022-10-06T09:33:55.409Z,1.63
2022-10-06T09:36:24.039Z,1.80
2022-10-06T09:38:53.919Z,1.73
2022-10-06T09:41:41.115Z,1.52
2022-10-06T09:44:24.846Z,1.70
2022-10-06T09:46:52.650Z,1.80
2022-10-06T09:49:26.929Z,2.05
2022-10-06T09:52:02.673Z,1.73
2022-10-06T09:54:31.042Z,1.75
2022-10-06T09:57:06.849Z,1.92
2022-10-06T09:59:42.211Z,1.92
2022-10-06T10:02:28.655Z,1.80
2022-10-06T10:04:56.942Z,1.95
2022-10-06T10:07:29.695Z,1.90
2022-10-06T10:10:22.516Z,1.35
2022-10-06T10:12:50.135Z,1.80
2022-10-06T10:15:19.889Z,2.08
2022-10-06T10:17:52.172Z,1.00
2022-10-06T10:20:40.120Z,1.73
2022-10-06T10:23:21.669Z,1.70
2022-10-06T10:26:08.112Z,1.67
2022-10-06T10:28:55.627Z,1.27
2022-10-06T10:31:36.568Z,1.50
2022-10-06T10:34:31.256Z,1.77
2022-10-06T10:37:19.665Z,1.77
2022-10-06T10:39:54.476Z,1.20
2022-10-06T10:42:29.447Z,1.48
2022-10-06T10:45:05.632Z,1.70
2022-10-06T10:47:37.825Z,1.38
2022-10-06T10:50:20.894Z,1.40
2022-10-06T10:52:50.580Z,1.77
2022-10-06T10:55:26.682Z,1.75
2022-10-06T10:57:59.327Z,1.20
2022-10-06T11:00:29.073Z,1.20
2022-10-06T11:02:58.321Z,1.30
2022-10-06T11:06:01.532Z,1.42
2022-10-06T11:08:49.264Z,1.35
2022-10-06T11:11:54.568Z,1.75
2022-10-06T11:14:50.896Z,1.58
2022-10-06T11:17:46.883Z,2.10
2022-10-06T11:20:36.658Z,1.73
2022-10-06T11:23:26.335Z,0.90
2022-10-06T11:26:29.674Z,1.75
2022-10-06T11:29:31.883Z,1.58
2022-10-06T11:32:18.091Z,1.75
2022-10-06T11:34:49.434Z,1.67
2022-10-06T11:37:16.501Z,1.00
2022-10-06T11:39:57.928Z,1.30
2022-10-06T11:45:16.196Z,1.73
2022-10-06T11:48:13.735Z,1.45
2022-10-06T11:50:42.661Z,1.13
2022-10-06T11:53:37.133Z,1.13
2022-10-06T11:56:19.535Z,1.40
2022-10-06T11:58:52.279Z,1.25
2022-10-06T12:01:30.940Z,1.52
2022-10-06T12:04:13.999Z,1.42
2022-10-06T12:06:46.544Z,1.20
2022-10-06T12:09:40.188Z,1.40
2022-10-06T12:12:19.120Z,1.20
2022-10-06T12:16:55.334Z,0.70
2022-10-06T12:17:59.235Z,1.35
2022-10-06T12:21:14.272Z,1.17
2022-10-06T12:23:57.312Z,1.30
2022-10-06T12:26:44.399Z,1.10
2022-10-06T12:29:23.741Z,1.05
2022-10-06T12:32:30.715Z,1.17
2022-10-06T12:35:03.374Z,1.05
2022-10-06T12:37:30.462Z,1.35
2022-10-06T12:40:34.784Z,1.30
2022-10-06T12:43:19.986Z,1.13
2022-10-06T12:45:58.223Z,1.30
2022-10-06T12:48:37.289Z,1.35
2022-10-06T12:51:12.860Z,1.10
2022-10-06T12:53:57.288Z,1.40
2022-10-06T12:56:31.756Z,1.42
2022-10-06T12:58:58.805Z,1.00
2022-10-06T13:01:27.817Z,1.05
2022-10-06T13:03:55.434Z,1.40
2022-10-06T13:06:24.569Z,1.08
2022-10-06T13:09:12.898Z,1.45
2022-10-06T13:11:40.099Z,1.30
2022-10-06T13:14:10.187Z,1.15
2022-10-06T13:16:40.979Z,1.00
2022-10-06T13:19:22.280Z,1.50
2022-10-06T13:21:49.692Z,1.05
2022-10-06T13:24:21.174Z,1.38
2022-10-06T13:26:51.325Z,1.73
2022-10-06T13:29:25.760Z,1.60
2022-10-06T13:31:54.943Z,1.88
2022-10-06T13:34:34.706Z,1.48
2022-10-06T13:37:01.992Z,1.83
2022-10-06T13:39:32.268Z,2.47
2022-10-06T13:42:00.430Z,1.10
2022-10-06T13:44:50.303Z,1.55
2022-10-06T13:47:23.440Z,1.00
2022-10-06T13:49:53.424Z,1.30
2022-10-06T13:52:24.867Z,1.60
2022-10-06T13:54:53.864Z,0.80
2022-10-06T13:57:40.537Z,1.33
2022-10-06T14:00:20.370Z,1.25
2022-10-06T14:02:50.719Z,1.52
2022-10-06T14:05:59.696Z,1.60
2022-10-06T14:08:27.805Z,1.70
2022-10-06T14:11:04.599Z,1.35
2022-10-06T14:13:52.728Z,1.70
2022-10-06T14:16:25.036Z,1.55
2022-10-06T14:19:03.535Z,0.98
2022-10-06T14:21:38.829Z,1.23
2022-10-06T14:24:20.316Z,1.23
2022-10-06T14:26:51.979Z,1.30
2022-10-06T14:29:21.675Z,1.38
2022-10-06T14:31:49.153Z,1.20
2022-10-06T14:34:18.127Z,1.05
2022-10-06T14:36:55.070Z,1.00
2022-10-06T14:39:21.922Z,1.20
2022-10-06T14:41:49.071Z,1.25
2022-10-06T14:44:19.183Z,1.83
2022-10-06T14:46:48.151Z,0.88
2022-10-06T14:49:15.304Z,1.30
2022-10-06T14:51:43.209Z,1.30
2022-10-06T14:54:12.115Z,1.67
2022-10-06T14:56:40.327Z,1.02
2022-10-06T14:59:09.564Z,1.10
2022-10-06T15:01:38.356Z,1.60
2022-10-06T15:04:13.641Z,1.55
2022-10-06T15:06:59.550Z,1.20
2022-10-06T15:09:29.622Z,1.10
2022-10-06T15:11:57.956Z,1.58
2022-10-06T15:14:25.028Z,1.95
2022-10-06T15:16:54.049Z,1.17
2022-10-06T15:19:20.773Z,1.63
2022-10-06T15:21:47.947Z,1.10
2022-10-06T15:24:16.392Z,1.63
2022-10-06T15:27:04.069Z,1.23
2022-10-06T15:29:31.760Z,1.60
2022-10-06T15:32:00.176Z,1.60
2022-10-06T15:34:28.649Z,1.60
2022-10-06T15:36:56.916Z,1.50
2022-10-06T15:39:25.925Z,1.70
2022-10-06T15:41:53.207Z,1.52
2022-10-06T15:44:20.310Z,1.50
2022-10-06T15:46:49.576Z,1.77
2022-10-06T15:49:21.989Z,1.77
2022-10-06T15:51:56.732Z,1.55
2022-10-06T15:54:33.516Z,1.27
2022-10-06T15:57:02.134Z,1.20
2022-10-06T15:59:33.707Z,1.35
2022-10-06T16:02:04.191Z,1.10
2022-10-06T16:04:48.609Z,1.50
2022-10-06T16:07:18.255Z,1.25
2022-10-06T16:09:46.924Z,1.50
2022-10-06T16:12:17.409Z,1.77
2022-10-06T16:14:44.890Z,1.35
2022-10-06T16:17:12.435Z,1.98
2022-10-06T16:19:43.090Z,0.93
2022-10-06T16:22:12.961Z,1.65
2022-10-06T16:24:40.320Z,2.97
2022-10-06T16:27:10.049Z,1.98
2022-10-06T16:29:37.162Z,1.70
2022-10-06T16:32:04.213Z,2.05
2022-10-06T16:34:31.486Z,2.60
2022-10-06T16:36:58.734Z,1.88
2022-10-06T16:39:25.903Z,1.77
2022-10-06T16:41:53.932Z,1.90
2022-10-06T16:44:21.080Z,2.15
2022-10-06T16:46:48.249Z,1.63
2022-10-06T16:49:15.485Z,1.95
2022-10-06T16:51:43.835Z,1.52
2022-10-06T16:54:12.693Z,2.28
2022-10-06T16:56:44.590Z,2.00
2022-10-06T16:59:15.000Z,1.75
2022-10-06T17:01:42.327Z,1.95
2022-10-06T17:04:17.939Z,2.83
2022-10-06T17:06:49.970Z,3.78
2022-10-06T17:09:27.431Z,2.95
2022-10-06T17:11:56.092Z,2.60
2022-10-06T17:14:23.742Z,2.22
2022-10-06T17:16:51.767Z,2.20
2022-10-06T17:19:21.175Z,2.47
2022-10-06T17:21:51.513Z,2.47
2022-10-06T17:24:20.015Z,2.28
2022-10-06T17:26:48.378Z,2.90
2022-10-06T17:29:18.871Z,2.30
2022-10-06T17:31:46.372Z,2.30
2022-10-06T17:34:19.606Z,2.53
2022-10-06T17:36:48.814Z,2.55
2022-10-06T17:39:16.946Z,2.65
2022-10-06T17:41:45.424Z,1.90
2022-10-06T17:44:14.127Z,2.10
2022-10-06T17:46:42.532Z,2.00
2022-10-06T17:49:10.551Z,2.35
2022-10-06T17:51:40.691Z,2.05
2022-10-06T17:56:35.368Z,2.22
2022-10-06T17:59:07.518Z,1.85
2022-10-06T18:01:36.053Z,2.00
2022-10-06T18:04:04.498Z,2.03
2022-10-06T18:06:33.279Z,2.17
2022-10-06T18:09:02.259Z,4.60
2022-10-06T18:11:33.513Z,4.05
2022-10-06T18:14:01.587Z,5.10
2022-10-06T18:16:33.989Z,4.82
2022-10-06T18:19:02.631Z,4.85
2022-10-06T18:21:35.133Z,4.15
2022-10-06T18:24:02.255Z,3.88
2022-10-06T18:26:29.371Z,4.28
2022-10-06T18:28:56.451Z,3.42
2022-10-06T18:31:23.538Z,6.65
2022-10-06T18:36:41.135Z,4.43
2022-10-06T18:39:08.949Z,4.70
2022-10-06T18:41:36.735Z,3.90
2022-10-06T18:44:07.288Z,3.80
2022-10-06T18:46:53.416Z,3.25
2022-10-06T18:49:22.886Z,4.68
2022-10-06T18:51:58.528Z,3.17
2022-10-06T18:54:32.477Z,3.17
2022-10-06T18:57:01.046Z,3.65
2022-10-06T18:59:31.178Z,3.35
2022-10-06T19:02:02.805Z,4.30
2022-10-06T19:04:32.728Z,5.68
2022-10-06T19:06:59.800Z,11.18
2022-10-06T19:09:26.957Z,8.20
2022-10-06T19:11:58.884Z,5.53
2022-10-06T19:14:27.183Z,4.25
2022-10-06T19:17:00.585Z,6.00
2022-10-06T19:19:29.753Z,3.85
2022-10-06T19:21:59.777Z,3.72
2022-10-06T19:24:48.437Z,3.75
2022-10-06T19:27:17.303Z,5.20
2022-10-06T19:29:46.222Z,5.55
2022-10-06T19:32:17.829Z,6.95
2022-10-06T19:34:45.298Z,4.72
2022-10-06T19:37:12.483Z,6.22
2022-10-06T19:39:42.713Z,5.78
2022-10-06T19:44:55.515Z,5.28
2022-10-06T19:47:22.758Z,7.35
2022-10-06T19:49:49.913Z,6.15
2022-10-06T19:52:19.943Z,10.10
2022-10-06T19:54:46.631Z,8.40
2022-10-06T19:57:14.116Z,6.78
2022-10-06T19:59:41.271Z,4.55
2022-10-06T20:02:12.826Z,2.90
2022-10-06T20:04:40.413Z,3.25
2022-10-06T20:07:09.060Z,3.30
2022-10-06T20:09:35.851Z,2.60
2022-10-06T20:12:03.563Z,3.00
2022-10-06T20:14:30.648Z,3.22
2022-10-06T20:16:57.995Z,2.90
2022-10-06T20:19:25.350Z,3.72
2022-10-06T20:21:52.573Z,3.28
2022-10-06T20:26:50.796Z,1.95
2022-10-06T20:29:19.726Z,2.78
2022-10-06T20:31:48.394Z,3.28
2022-10-06T20:34:17.511Z,2.90
2022-10-06T20:36:44.848Z,2.63
2022-10-06T20:39:32.612Z,3.83
2022-10-06T20:41:59.843Z,2.63
2022-10-06T20:44:29.039Z,3.60
2022-10-06T20:46:56.198Z,3.40
2022-10-06T20:49:23.492Z,3.63
2022-10-06T20:51:52.069Z,3.60
2022-10-06T20:54:20.144Z,3.70
2022-10-06T20:56:51.378Z,3.10
2022-10-06T20:59:18.939Z,3.22
2022-10-06T21:01:46.370Z,3.03
2022-10-06T21:04:14.978Z,3.28
2022-10-06T21:06:42.347Z,2.80
2022-10-06T21:09:12.062Z,3.67
2022-10-06T21:11:39.408Z,3.80
2022-10-06T21:14:11.472Z,3.63
2022-10-06T21:16:40.205Z,3.67
2022-10-06T21:19:08.365Z,3.45
2022-10-06T21:21:36.691Z,3.70
2022-10-06T21:24:06.926Z,3.80
2022-10-06T21:29:01.439Z,3.97
2022-10-06T21:31:29.148Z,3.88
2022-10-06T21:33:56.372Z,3.92
2022-10-06T21:36:24.562Z,3.28
2022-10-06T21:38:55.796Z,4.22
2022-10-06T21:41:31.821Z,3.85
2022-10-06T21:44:05.354Z,4.30
2022-10-06T21:46:32.435Z,4.25
2022-10-06T21:49:00.168Z,3.83
2022-10-06T21:51:31.054Z,4.72
2022-10-06T21:53:59.343Z,4.35
2022-10-06T21:56:27.499Z,4.70
2022-10-06T21:58:55.743Z,4.40
2022-10-06T22:01:24.485Z,3.92
2022-10-06T22:03:51.581Z,3.63
2022-10-06T22:06:19.932Z,4.38
2022-10-06T22:08:47.525Z,4.75
2022-10-06T22:11:16.413Z,4.40
2022-10-06T22:13:45.550Z,4.63
2022-10-06T22:16:14.070Z,4.55
2022-10-06T22:18:41.889Z,4.57
2022-10-06T22:21:12.836Z,4.30
2022-10-06T22:23:40.968Z,4.78
2022-10-06T22:26:08.839Z,4.35
2022-10-06T22:28:36.539Z,4.75
2022-10-06T22:31:08.340Z,5.43
2022-10-06T22:33:36.252Z,3.55
2022-10-06T22:36:03.490Z,3.97
2022-10-06T22:38:30.865Z,3.45
2022-10-06T22:41:01.758Z,3.90
2022-10-06T22:43:29.401Z,3.38
2022-10-06T22:45:56.785Z,3.00
2022-10-06T22:48:23.894Z,4.70
2022-10-06T22:50:51.234Z,4.97
2022-10-06T22:53:22.616Z,4.10
2022-10-06T22:55:49.742Z,5.03
2022-10-06T22:58:18.017Z,4.07
2022-10-06T23:00:45.602Z,4.38
2022-10-06T23:03:12.847Z,4.55
2022-10-06T23:05:40.495Z,4.70
2022-10-06T23:08:08.323Z,4.25
2022-10-06T23:10:36.096Z,3.53
2022-10-06T23:13:03.723Z,4.28
2022-10-06T23:15:31.188Z,3.40
2022-10-06T23:17:58.310Z,4.05
2022-10-06T23:20:25.373Z,4.28
2022-10-06T23:22:55.509Z,4.70
2022-10-06T23:25:27.143Z,4.05
2022-10-06T23:27:54.469Z,4.60
2022-10-06T23:30:21.745Z,5.03
2022-10-06T23:32:48.988Z,4.70
2022-10-06T23:35:16.077Z,4.47
2022-10-06T23:37:43.481Z,4.70
2022-10-06T23:40:10.956Z,4.68
2022-10-06T23:42:38.191Z,3.83
2022-10-06T23:45:07.490Z,4.30
2022-10-06T23:47:34.602Z,4.65
2022-10-06T23:50:01.676Z,3.83
2022-10-06T23:52:28.869Z,4.80
2022-10-06T23:54:58.837Z,4.38
2022-10-06T23:57:25.869Z,5.13
2022-10-06T23:59:52.974Z,4.18
